sensor_id;sensor_type;location;lat;lon;timestamp;pressure;altitude;pressure_sealevel;temperature;humidity
49945;BME280;35838;49.134;9.212;2023-03-12T00:00:28;99616.63;;;0.50;71.13
49945;BME280;35838;49.134;9.212;2023-03-12T00:01:59;99613.03;;;0.44;71.00
49945;BME280;35838;49.134;9.212;2023-03-12T00:03:33;99612.28;;;0.47;71.10
49945;BME280;35838;49.134;9.212;2023-03-12T00:05:07;99613.63;;;0.36;71.28
49945;BME280;35838;49.134;9.212;2023-03-12T00:06:43;99613.63;;;0.36;71.33
49945;BME280;35838;49.134;9.212;2023-03-12T00:08:17;99623.41;;;0.49;71.40
49945;BME280;35838;49.134;9.212;2023-03-12T00:09:50;99627.16;;;0.60;71.60
49945;BME280;35838;49.134;9.212;2023-03-12T00:11:24;99623.09;;;0.66;71.46
49945;BME280;35838;49.134;9.212;2023-03-12T00:12:58;99625.53;;;0.62;71.33
49945;BME280;35838;49.134;9.212;2023-03-12T00:14:32;99623.09;;;0.66;71.25
49945;BME280;35838;49.134;9.212;2023-03-12T00:16:06;99621.13;;;0.58;70.97
49945;BME280;35838;49.134;9.212;2023-03-12T00:17:37;99626.84;;;0.50;71.27
49945;BME280;35838;49.134;9.212;2023-03-12T00:19:11;99623.06;;;0.38;71.68
49945;BME280;35838;49.134;9.212;2023-03-12T00:20:51;99622.22;;;0.38;72.15
49945;BME280;35838;49.134;9.212;2023-03-12T00:22:28;99623.25;;;0.44;72.17
49945;BME280;35838;49.134;9.212;2023-03-12T00:24:01;99621.47;;;0.42;72.38
49945;BME280;35838;49.134;9.212;2023-03-12T00:25:35;99619.06;;;0.46;72.03
49945;BME280;35838;49.134;9.212;2023-03-12T00:27:08;99617.19;;;0.41;72.03
49945;BME280;35838;49.134;9.212;2023-03-12T00:28:42;99616.03;;;0.31;71.96
49945;BME280;35838;49.134;9.212;2023-03-12T00:30:13;99617.63;;;0.27;71.76
49945;BME280;35838;49.134;9.212;2023-03-12T00:31:47;99621.13;;;0.31;71.86
49945;BME280;35838;49.134;9.212;2023-03-12T00:33:21;99621.28;;;0.36;71.88
49945;BME280;35838;49.134;9.212;2023-03-12T00:34:54;99620.50;;;0.38;71.73
49945;BME280;35838;49.134;9.212;2023-03-12T00:36:29;99625.47;;;0.34;71.45
49945;BME280;35838;49.134;9.212;2023-03-12T00:38:05;99622.09;;;0.35;71.41
49945;BME280;35838;49.134;9.212;2023-03-12T00:39:39;99618.63;;;0.33;71.71
49945;BME280;35838;49.134;9.212;2023-03-12T00:41:13;99614.25;;;0.28;71.53
49945;BME280;35838;49.134;9.212;2023-03-12T00:42:46;99613.38;;;0.28;71.48
49945;BME280;35838;49.134;9.212;2023-03-12T00:44:20;99609.06;;;0.27;71.63
49945;BME280;35838;49.134;9.212;2023-03-12T00:45:53;99610.72;;;0.25;71.75
49945;BME280;35838;49.134;9.212;2023-03-12T00:47:24;99602.00;;;0.18;71.93
49945;BME280;35838;49.134;9.212;2023-03-12T00:48:58;99609.66;;;0.18;72.51
49945;BME280;35838;49.134;9.212;2023-03-12T00:50:32;99600.16;;;0.14;72.69
49945;BME280;35838;49.134;9.212;2023-03-12T00:52:06;99606.25;;;0.18;72.78
49945;BME280;35838;49.134;9.212;2023-03-12T00:53:42;99597.09;;;0.24;72.82
49945;BME280;35838;49.134;9.212;2023-03-12T00:55:16;99604.03;;;0.28;72.66
49945;BME280;35838;49.134;9.212;2023-03-12T00:56:47;99607.28;;;0.24;72.48
49945;BME280;35838;49.134;9.212;2023-03-12T00:58:20;99604.66;;;0.21;73.03
49945;BME280;35838;49.134;9.212;2023-03-12T00:59:52;99606.38;;;0.22;73.13
49945;BME280;35838;49.134;9.212;2023-03-12T01:01:25;99604.06;;;0.30;72.99
49945;BME280;35838;49.134;9.212;2023-03-12T01:02:59;99597.66;;;0.15;72.92
49945;BME280;35838;49.134;9.212;2023-03-12T01:04:32;99608.06;;;0.22;72.87
49945;BME280;35838;49.134;9.212;2023-03-12T01:06:06;99599.34;;;0.15;73.25
49945;BME280;35838;49.134;9.212;2023-03-12T01:07:40;99605.50;;;0.22;72.97
49945;BME280;35838;49.134;9.212;2023-03-12T01:09:14;99604.53;;;0.18;72.99
49945;BME280;35838;49.134;9.212;2023-03-12T01:10:47;99606.19;;;0.16;73.30
49945;BME280;35838;49.134;9.212;2023-03-12T01:12:21;99602.84;;;0.19;73.16
49945;BME280;35838;49.134;9.212;2023-03-12T01:13:55;99608.03;;;0.20;73.25
49945;BME280;35838;49.134;9.212;2023-03-12T01:15:29;99602.69;;;0.14;73.28
49945;BME280;35838;49.134;9.212;2023-03-12T01:17:03;99600.22;;;0.15;73.53
49945;BME280;35838;49.134;9.212;2023-03-12T01:18:37;99597.44;;;0.09;73.58
49945;BME280;35838;49.134;9.212;2023-03-12T01:20:11;99609.66;;;0.18;73.41
49945;BME280;35838;49.134;9.212;2023-03-12T01:21:44;99607.81;;;0.14;73.37
49945;BME280;35838;49.134;9.212;2023-03-12T01:23:18;99613.03;;;0.17;73.55
49945;BME280;35838;49.134;9.212;2023-03-12T01:24:54;99612.09;;;0.15;73.66
49945;BME280;35838;49.134;9.212;2023-03-12T01:26:28;99615.47;;;0.14;73.53
49945;BME280;35838;49.134;9.212;2023-03-12T01:27:59;99610.31;;;0.12;73.63
49945;BME280;35838;49.134;9.212;2023-03-12T01:29:32;99612.22;;;0.18;73.41
49945;BME280;35838;49.134;9.212;2023-03-12T01:31:06;99606.09;;;0.13;73.47
49945;BME280;35838;49.134;9.212;2023-03-12T01:32:40;99609.47;;;0.12;73.32
49945;BME280;35838;49.134;9.212;2023-03-12T01:34:14;99613.78;;;0.14;73.75
49945;BME280;35838;49.134;9.212;2023-03-12T01:35:47;99611.13;;;0.11;74.01
49945;BME280;35838;49.134;9.212;2023-03-12T01:37:21;99624.16;;;0.19;74.12
49945;BME280;35838;49.134;9.212;2023-03-12T01:38:52;99621.75;;;0.24;74.25
49945;BME280;35838;49.134;9.212;2023-03-12T01:40:31;99619.97;;;0.21;73.88
49945;BME280;35838;49.134;9.212;2023-03-12T01:42:05;99627.38;;;0.13;73.52
49945;BME280;35838;49.134;9.212;2023-03-12T01:43:38;99618.91;;;0.14;73.27
49945;BME280;35838;49.134;9.212;2023-03-12T01:47:01;99618.25;;;0.20;72.10
49945;BME280;35838;49.134;9.212;2023-03-12T01:48:35;99619.97;;;0.21;72.17
49945;BME280;35838;49.134;9.212;2023-03-12T01:50:08;99618.13;;;0.17;72.07
49945;BME280;35838;49.134;9.212;2023-03-12T01:51:44;99618.13;;;0.17;72.24
49945;BME280;35838;49.134;9.212;2023-03-12T01:53:18;99620.63;;;0.15;72.03
49945;BME280;35838;49.134;9.212;2023-03-12T01:54:53;99623.41;;;0.23;72.19
49945;BME280;35838;49.134;9.212;2023-03-12T01:56:31;99622.00;;;0.31;71.63
49945;BME280;35838;49.134;9.212;2023-03-12T01:58:06;99612.97;;;0.15;71.81
49945;BME280;35838;49.134;9.212;2023-03-12T01:59:41;99612.06;;;0.13;72.19
49945;BME280;35838;49.134;9.212;2023-03-12T02:01:16;99612.22;;;0.18;72.07
49945;BME280;35838;49.134;9.212;2023-03-12T02:02:48;99609.63;;;0.17;71.70
49945;BME280;35838;49.134;9.212;2023-03-12T02:04:23;99610.31;;;0.12;71.83
49945;BME280;35838;49.134;9.212;2023-03-12T02:05:59;99606.28;;;0.19;71.85
49945;BME280;35838;49.134;9.212;2023-03-12T02:07:36;99604.44;;;0.15;71.94
49945;BME280;35838;49.134;9.212;2023-03-12T02:09:09;99608.25;;;0.28;72.07
49945;BME280;35838;49.134;9.212;2023-03-12T02:10:44;99604.84;;;0.27;71.55
49945;BME280;35838;49.134;9.212;2023-03-12T02:12:18;99599.56;;;0.21;71.64
49945;BME280;35838;49.134;9.212;2023-03-12T02:13:52;99605.56;;;0.23;71.96
49945;BME280;35838;49.134;9.212;2023-03-12T02:15:23;99602.28;;;0.27;72.00
49945;BME280;35838;49.134;9.212;2023-03-12T02:16:57;99607.22;;;0.21;72.16
49945;BME280;35838;49.134;9.212;2023-03-12T02:18:31;99602.34;;;0.29;72.08
49945;BME280;35838;49.134;9.212;2023-03-12T02:20:08;99610.81;;;0.28;72.21
49945;BME280;35838;49.134;9.212;2023-03-12T02:21:45;99605.78;;;0.29;72.23
49945;BME280;35838;49.134;9.212;2023-03-12T02:23:20;99595.75;;;0.36;72.08
49945;BME280;35838;49.134;9.212;2023-03-12T02:24:57;99599.84;;;0.30;72.08
49945;BME280;35838;49.134;9.212;2023-03-12T02:26:37;99604.97;;;0.30;71.99
49945;BME280;35838;49.134;9.212;2023-03-12T02:28:12;99599.56;;;0.21;72.33
49945;BME280;35838;49.134;9.212;2023-03-12T02:29:46;99602.91;;;0.20;72.43
49945;BME280;35838;49.134;9.212;2023-03-12T02:31:21;99604.53;;;0.18;72.47
49945;BME280;35838;49.134;9.212;2023-03-12T02:32:53;99596.13;;;0.21;72.64
49945;BME280;35838;49.134;9.212;2023-03-12T02:34:28;99596.84;;;0.17;72.44
49945;BME280;35838;49.134;9.212;2023-03-12T02:36:02;99594.53;;;0.24;72.48
49945;BME280;35838;49.134;9.212;2023-03-12T02:37:45;99594.69;;;0.29;72.19
49945;BME280;35838;49.134;9.212;2023-03-12T02:39:19;99597.69;;;0.17;72.36
49945;BME280;35838;49.134;9.212;2023-03-12T02:40:52;99602.19;;;0.24;72.48
49945;BME280;35838;49.134;9.212;2023-03-12T02:42:28;99591.06;;;0.22;72.45
49945;BME280;35838;49.134;9.212;2023-03-12T02:44:02;99591.94;;;0.23;72.31
49945;BME280;35838;49.134;9.212;2023-03-12T02:45:34;99595.59;;;0.31;72.40
49945;BME280;35838;49.134;9.212;2023-03-12T02:47:08;99593.91;;;0.31;72.61
49945;BME280;35838;49.134;9.212;2023-03-12T02:48:41;99592.22;;;0.32;72.67
49945;BME280;35838;49.134;9.212;2023-03-12T02:50:15;99590.97;;;0.19;72.61
49945;BME280;35838;49.134;9.212;2023-03-12T02:51:49;99593.03;;;0.04;72.93
49945;BME280;35838;49.134;9.212;2023-03-12T02:53:22;99594.88;;;0.09;73.16
49945;BME280;35838;49.134;9.212;2023-03-12T02:54:53;99595.88;;;0.13;73.51
49945;BME280;35838;49.134;9.212;2023-03-12T02:56:27;99597.69;;;0.17;73.83
49945;BME280;35838;49.134;9.212;2023-03-12T02:58:01;99595.31;;;0.22;73.56
49945;BME280;35838;49.134;9.212;2023-03-12T02:59:34;99588.47;;;0.21;73.49
49945;BME280;35838;49.134;9.212;2023-03-12T03:01:08;99592.63;;;0.19;73.80
49945;BME280;35838;49.134;9.212;2023-03-12T03:02:39;99593.75;;;0.27;73.71
49945;BME280;35838;49.134;9.212;2023-03-12T03:04:13;99592.94;;;0.28;73.78
49945;BME280;35838;49.134;9.212;2023-03-12T03:05:46;99587.16;;;0.34;73.61
49945;BME280;35838;49.134;9.212;2023-03-12T03:07:17;99587.13;;;0.32;73.84
49945;BME280;35838;49.134;9.212;2023-03-12T03:08:51;99593.97;;;0.33;73.56
49945;BME280;35838;49.134;9.212;2023-03-12T03:10:25;99589.69;;;0.32;73.68
49945;BME280;35838;49.134;9.212;2023-03-12T03:11:56;99593.69;;;0.24;73.75
49945;BME280;35838;49.134;9.212;2023-03-12T03:13:32;99586.06;;;0.25;74.16
49945;BME280;35838;49.134;9.212;2023-03-12T03:15:06;99586.94;;;0.26;74.05
49945;BME280;35838;49.134;9.212;2023-03-12T03:16:40;99583.63;;;0.28;74.15
49945;BME280;35838;49.134;9.212;2023-03-12T03:18:13;99586.16;;;0.28;74.23
49945;BME280;35838;49.134;9.212;2023-03-12T03:19:47;99583.75;;;0.33;74.13
49945;BME280;35838;49.134;9.212;2023-03-12T03:21:21;99582.81;;;0.29;73.96
49945;BME280;35838;49.134;9.212;2023-03-12T03:22:54;99585.25;;;0.26;74.16
49945;BME280;35838;49.134;9.212;2023-03-12T03:24:28;99581.13;;;0.31;74.04
49945;BME280;35838;49.134;9.212;2023-03-12T03:26:02;99584.44;;;0.27;73.72
49945;BME280;35838;49.134;9.212;2023-03-12T03:27:35;99581.75;;;0.24;73.92
49945;BME280;35838;49.134;9.212;2023-03-12T03:29:12;99578.22;;;0.19;73.95
49945;BME280;35838;49.134;9.212;2023-03-12T03:30:46;99576.66;;;0.24;73.97
49945;BME280;35838;49.134;9.212;2023-03-12T03:32:20;99584.31;;;0.24;73.89
49945;BME280;35838;49.134;9.212;2023-03-12T03:33:53;99577.03;;;0.35;73.78
49945;BME280;35838;49.134;9.212;2023-03-12T03:35:27;99577.84;;;0.34;73.83
49945;BME280;35838;49.134;9.212;2023-03-12T03:37:00;99579.59;;;0.35;73.86
49945;BME280;35838;49.134;9.212;2023-03-12T03:38:34;99583.84;;;0.36;73.76
49945;BME280;35838;49.134;9.212;2023-03-12T03:40:08;99590.03;;;0.43;73.75
49945;BME280;35838;49.134;9.212;2023-03-12T03:41:41;99584.91;;;0.43;73.88
49945;BME280;35838;49.134;9.212;2023-03-12T03:43:16;99587.47;;;0.43;73.97
49945;BME280;35838;49.134;9.212;2023-03-12T03:44:53;99587.66;;;0.49;73.66
49945;BME280;35838;49.134;9.212;2023-03-12T03:46:26;99583.66;;;0.57;73.42
49945;BME280;35838;49.134;9.212;2023-03-12T03:48:00;99585.09;;;0.49;74.47
49945;BME280;35838;49.134;9.212;2023-03-12T03:49:31;99580.63;;;0.42;75.56
49945;BME280;35838;49.134;9.212;2023-03-12T03:51:06;99584.63;;;0.34;75.80
49945;BME280;35838;49.134;9.212;2023-03-12T03:52:37;99581.25;;;0.35;76.68
49945;BME280;35838;49.134;9.212;2023-03-12T03:54:10;99581.13;;;0.31;77.22
49945;BME280;35838;49.134;9.212;2023-03-12T03:55:44;99572.59;;;0.29;77.53
49945;BME280;35838;49.134;9.212;2023-03-12T03:57:18;99574.56;;;0.38;77.54
49945;BME280;35838;49.134;9.212;2023-03-12T03:58:52;99583.13;;;0.40;77.73
49945;BME280;35838;49.134;9.212;2023-03-12T04:00:28;99578.13;;;0.43;77.41
49945;BME280;35838;49.134;9.212;2023-03-12T04:02:01;99578.00;;;0.39;77.11
49945;BME280;35838;49.134;9.212;2023-03-12T04:03:35;99576.63;;;0.50;77.09
49945;BME280;35838;49.134;9.212;2023-03-12T04:05:09;99580.09;;;0.52;76.81
49945;BME280;35838;49.134;9.212;2023-03-12T04:06:42;99574.00;;;0.47;76.94
49945;BME280;35838;49.134;9.212;2023-03-12T04:08:13;99571.72;;;0.56;76.69
49945;BME280;35838;49.134;9.212;2023-03-12T04:09:47;99571.63;;;0.53;76.79
49945;BME280;35838;49.134;9.212;2023-03-12T04:11:23;99573.44;;;0.57;76.86
49945;BME280;35838;49.134;9.212;2023-03-12T04:12:57;99570.16;;;0.61;76.85
49945;BME280;35838;49.134;9.212;2023-03-12T04:14:30;99577.16;;;0.67;76.79
49945;BME280;35838;49.134;9.212;2023-03-12T04:16:07;99580.69;;;0.72;76.61
49945;BME280;35838;49.134;9.212;2023-03-12T04:17:41;99578.94;;;0.70;76.64
49945;BME280;35838;49.134;9.212;2023-03-12T04:19:14;99572.28;;;0.75;76.71
49945;BME280;35838;49.134;9.212;2023-03-12T04:20:48;99578.94;;;0.70;76.71
49945;BME280;35838;49.134;9.212;2023-03-12T04:22:22;99572.00;;;0.66;77.03
49945;BME280;35838;49.134;9.212;2023-03-12T04:23:56;99575.28;;;0.61;77.25
49945;BME280;35838;49.134;9.212;2023-03-12T04:25:29;99574.75;;;0.72;77.33
49945;BME280;35838;49.134;9.212;2023-03-12T04:27:03;99575.66;;;0.74;77.34
49945;BME280;35838;49.134;9.212;2023-03-12T04:28:37;99573.97;;;0.74;77.28
49945;BME280;35838;49.134;9.212;2023-03-12T04:30:11;99580.94;;;0.80;77.08
49945;BME280;35838;49.134;9.212;2023-03-12T04:31:47;99573.25;;;0.78;77.10
49945;BME280;35838;49.134;9.212;2023-03-12T04:33:21;99572.19;;;0.72;77.27
49945;BME280;35838;49.134;9.212;2023-03-12T04:34:55;99582.50;;;0.75;77.31
49945;BME280;35838;49.134;9.212;2023-03-12T04:36:28;99577.34;;;0.73;77.39
49945;BME280;35838;49.134;9.212;2023-03-12T04:38:02;99582.44;;;0.73;77.36
49945;BME280;35838;49.134;9.212;2023-03-12T04:39:36;99576.53;;;0.76;77.63
49945;BME280;35838;49.134;9.212;2023-03-12T04:41:10;99583.53;;;0.82;77.23
49945;BME280;35838;49.134;9.212;2023-03-12T04:42:44;99575.94;;;0.83;77.33
49945;BME280;35838;49.134;9.212;2023-03-12T04:44:17;99575.84;;;0.80;76.95
49945;BME280;35838;49.134;9.212;2023-03-12T04:45:51;99579.38;;;0.85;76.65
49945;BME280;35838;49.134;9.212;2023-03-12T04:47:24;99579.50;;;0.88;76.58
49945;BME280;35838;49.134;9.212;2023-03-12T04:48:58;99575.03;;;0.81;75.94
49945;BME280;35838;49.134;9.212;2023-03-12T04:50:32;99570.97;;;0.88;75.73
49945;BME280;35838;49.134;9.212;2023-03-12T04:52:05;99562.91;;;0.75;75.51
49945;BME280;35838;49.134;9.212;2023-03-12T04:53:39;99567.47;;;0.57;75.50
49945;BME280;35838;49.134;9.212;2023-03-12T04:55:13;99565.06;;;0.61;75.78
49945;BME280;35838;49.134;9.212;2023-03-12T04:56:46;99561.09;;;0.71;75.55
49945;BME280;35838;49.134;9.212;2023-03-12T04:58:20;99565.72;;;0.83;75.72
49945;BME280;35838;49.134;9.212;2023-03-12T04:59:53;99555.56;;;0.86;75.30
49945;BME280;35838;49.134;9.212;2023-03-12T05:01:28;99558.13;;;0.86;75.43
49945;BME280;35838;49.134;9.212;2023-03-12T05:03:04;99566.59;;;0.85;75.87
49945;BME280;35838;49.134;9.212;2023-03-12T05:04:38;99560.88;;;0.92;75.97
49945;BME280;35838;49.134;9.212;2023-03-12T05:06:12;99565.22;;;0.68;75.83
49945;BME280;35838;49.134;9.212;2023-03-12T05:07:45;99566.78;;;0.62;75.96
49945;BME280;35838;49.134;9.212;2023-03-12T05:09:19;99578.16;;;0.72;75.93
49945;BME280;35838;49.134;9.212;2023-03-12T05:10:52;99571.41;;;0.74;76.03
49945;BME280;35838;49.134;9.212;2023-03-12T05:12:26;99576.69;;;0.81;76.20
49945;BME280;35838;49.134;9.212;2023-03-12T05:14:00;99582.41;;;0.72;76.36
49945;BME280;35838;49.134;9.212;2023-03-12T05:15:36;99568.81;;;0.73;76.46
49945;BME280;35838;49.134;9.212;2023-03-12T05:17:09;99577.66;;;0.84;76.41
49945;BME280;35838;49.134;9.212;2023-03-12T05:18:46;99583.91;;;0.94;76.30
49945;BME280;35838;49.134;9.212;2023-03-12T05:20:19;99574.56;;;0.94;76.51
49945;BME280;35838;49.134;9.212;2023-03-12T05:21:53;99572.00;;;0.94;76.60
49945;BME280;35838;49.134;9.212;2023-03-12T05:23:26;99569.44;;;0.94;76.38
49945;BME280;35838;49.134;9.212;2023-03-12T05:25:00;99574.19;;;0.82;76.49
49945;BME280;35838;49.134;9.212;2023-03-12T05:26:34;99573.56;;;0.89;76.54
49945;BME280;35838;49.134;9.212;2023-03-12T05:28:08;99572.63;;;0.87;76.46
49945;BME280;35838;49.134;9.212;2023-03-12T05:29:41;99570.31;;;0.95;76.40
49945;BME280;35838;49.134;9.212;2023-03-12T05:31:15;99560.16;;;0.98;75.97
49945;BME280;35838;49.134;9.212;2023-03-12T05:32:46;99567.69;;;0.93;75.86
49945;BME280;35838;49.134;9.212;2023-03-12T05:34:22;99556.75;;;0.98;75.65
49945;BME280;35838;49.134;9.212;2023-03-12T05:35:56;99555.94;;;0.99;75.40
49945;BME280;35838;49.134;9.212;2023-03-12T05:37:29;99548.00;;;0.89;75.52
49945;BME280;35838;49.134;9.212;2023-03-12T05:39:03;99552.28;;;0.90;75.97
49945;BME280;35838;49.134;9.212;2023-03-12T05:40:37;99551.50;;;0.93;75.94
49945;BME280;35838;49.134;9.212;2023-03-12T05:42:10;99554.19;;;0.98;75.67
49945;BME280;35838;49.134;9.212;2023-03-12T05:43:44;99561.47;;;0.84;75.70
49945;BME280;35838;49.134;9.212;2023-03-12T05:45:18;99557.13;;;0.81;75.41
49945;BME280;35838;49.134;9.212;2023-03-12T05:46:52;99545.28;;;0.83;75.39
49945;BME280;35838;49.134;9.212;2023-03-12T05:48:25;99557.22;;;0.84;76.06
49945;BME280;35838;49.134;9.212;2023-03-12T05:50:02;99552.19;;;0.87;75.77
49945;BME280;35838;49.134;9.212;2023-03-12T05:51:35;99557.81;;;0.75;75.37
49945;BME280;35838;49.134;9.212;2023-03-12T05:53:09;99568.28;;;0.83;75.31
49945;BME280;35838;49.134;9.212;2023-03-12T05:54:43;99560.25;;;0.72;74.67
49945;BME280;35838;49.134;9.212;2023-03-12T05:56:17;99556.84;;;0.72;74.63
49945;BME280;35838;49.134;9.212;2023-03-12T05:57:51;99561.97;;;0.72;73.98
49945;BME280;35838;49.134;9.212;2023-03-12T05:59:24;99555.91;;;0.68;73.57
49945;BME280;35838;49.134;9.212;2023-03-12T06:00:58;99552.09;;;0.84;73.78
49945;BME280;35838;49.134;9.212;2023-03-12T06:02:29;99554.03;;;0.91;72.86
49945;BME280;35838;49.134;9.212;2023-03-12T06:04:02;99549.88;;;0.95;72.27
49945;BME280;35838;49.134;9.212;2023-03-12T06:05:39;99545.91;;;1.06;72.05
49945;BME280;35838;49.134;9.212;2023-03-12T06:07:12;99552.09;;;1.13;71.85
49945;BME280;35838;49.134;9.212;2023-03-12T06:08:46;99548.94;;;1.22;71.42
49945;BME280;35838;49.134;9.212;2023-03-12T06:10:19;99548.09;;;1.23;71.07
49945;BME280;35838;49.134;9.212;2023-03-12T06:11:53;99553.41;;;1.31;71.16
49945;BME280;35838;49.134;9.212;2023-03-12T06:13:27;99549.22;;;1.33;70.79
49945;BME280;35838;49.134;9.212;2023-03-12T06:15:00;99555.06;;;1.29;69.99
49945;BME280;35838;49.134;9.212;2023-03-12T06:16:34;99551.53;;;1.23;70.06
49945;BME280;35838;49.134;9.212;2023-03-12T06:18:07;99551.38;;;1.19;69.86
49945;BME280;35838;49.134;9.212;2023-03-12T06:19:41;99546.66;;;1.02;70.81
49945;BME280;35838;49.134;9.212;2023-03-12T06:21:18;99544.22;;;1.05;71.62
49945;BME280;35838;49.134;9.212;2023-03-12T06:22:52;99543.31;;;1.05;71.75
49945;BME280;35838;49.134;9.212;2023-03-12T06:24:25;99548.59;;;1.11;71.53
49945;BME280;35838;49.134;9.212;2023-03-12T06:25:59;99549.69;;;1.19;71.50
49945;BME280;35838;49.134;9.212;2023-03-12T06:27:30;99554.78;;;1.19;71.60
49945;BME280;35838;49.134;9.212;2023-03-12T06:29:04;99553.22;;;1.23;71.56
49945;BME280;35838;49.134;9.212;2023-03-12T06:30:37;99548.94;;;1.22;71.23
49945;BME280;35838;49.134;9.212;2023-03-12T06:32:11;99543.47;;;1.09;70.80
49945;BME280;35838;49.134;9.212;2023-03-12T06:33:45;99541.56;;;1.02;70.47
49945;BME280;35838;49.134;9.212;2023-03-12T06:35:18;99540.22;;;1.15;70.86
49945;BME280;35838;49.134;9.212;2023-03-12T06:36:55;99543.56;;;1.13;70.87
49945;BME280;35838;49.134;9.212;2023-03-12T06:38:28;99548.13;;;1.24;70.64
49945;BME280;35838;49.134;9.212;2023-03-12T06:40:02;99540.56;;;1.28;70.54
49945;BME280;35838;49.134;9.212;2023-03-12T06:41:39;99541.66;;;1.36;70.54
49945;BME280;35838;49.134;9.212;2023-03-12T06:43:13;99535.03;;;1.44;70.07
49945;BME280;35838;49.134;9.212;2023-03-12T06:44:46;99532.50;;;1.46;69.73
49945;BME280;35838;49.134;9.212;2023-03-12T06:46:20;99531.03;;;1.54;68.93
49945;BME280;35838;49.134;9.212;2023-03-12T06:47:55;99538.91;;;1.62;68.81
49945;BME280;35838;49.134;9.212;2023-03-12T06:49:28;99533.78;;;1.62;69.09
49945;BME280;35838;49.134;9.212;2023-03-12T06:51:04;99529.56;;;1.64;68.89
49945;BME280;35838;49.134;9.212;2023-03-12T06:52:40;99530.41;;;1.63;68.84
49945;BME280;35838;49.134;9.212;2023-03-12T06:54:14;99530.56;;;1.69;69.31
49945;BME280;35838;49.134;9.212;2023-03-12T06:55:48;99527.19;;;1.70;69.50
49945;BME280;35838;49.134;9.212;2023-03-12T06:57:22;99529.06;;;1.77;69.42
49945;BME280;35838;49.134;9.212;2023-03-12T06:58:55;99535.94;;;1.80;69.24
49945;BME280;35838;49.134;9.212;2023-03-12T07:00:29;99535.94;;;1.80;68.72
49945;BME280;35838;49.134;9.212;2023-03-12T07:02:04;99540.53;;;1.58;68.51
49945;BME280;35838;49.134;9.212;2023-03-12T07:03:38;99544.47;;;1.47;69.20
49945;BME280;35838;49.134;9.212;2023-03-12T07:05:11;99548.47;;;1.37;69.49
49945;BME280;35838;49.134;9.212;2023-03-12T07:06:45;99551.16;;;1.41;69.73
49945;BME280;35838;49.134;9.212;2023-03-12T07:08:23;99552.13;;;1.45;70.08
49945;BME280;35838;49.134;9.212;2023-03-12T07:09:59;99556.72;;;1.59;70.07
49945;BME280;35838;49.134;9.212;2023-03-12T07:11:33;99553.56;;;1.67;69.98
49945;BME280;35838;49.134;9.212;2023-03-12T07:13:06;99555.34;;;1.70;69.93
49945;BME280;35838;49.134;9.212;2023-03-12T07:14:40;99560.34;;;1.67;70.09
49945;BME280;35838;49.134;9.212;2023-03-12T07:16:14;99558.03;;;1.76;70.50
49945;BME280;35838;49.134;9.212;2023-03-12T07:17:47;99560.63;;;1.78;70.19
49945;BME280;35838;49.134;9.212;2023-03-12T07:19:21;99557.22;;;1.77;69.54
49945;BME280;35838;49.134;9.212;2023-03-12T07:20:54;99555.16;;;1.64;69.26
49945;BME280;35838;49.134;9.212;2023-03-12T07:22:28;99564.75;;;1.71;69.71
49945;BME280;35838;49.134;9.212;2023-03-12T07:24:05;99571.66;;;1.75;70.04
49945;BME280;35838;49.134;9.212;2023-03-12T07:25:40;99568.41;;;1.81;69.77
49945;BME280;35838;49.134;9.212;2023-03-12T07:27:14;99569.75;;;1.66;69.74
49945;BME280;35838;49.134;9.212;2023-03-12T07:28:47;99568.16;;;1.71;69.98
49945;BME280;35838;49.134;9.212;2023-03-12T07:30:21;99564.09;;;1.80;69.19
49945;BME280;35838;49.134;9.212;2023-03-12T07:31:54;99568.41;;;1.81;69.20
49945;BME280;35838;49.134;9.212;2023-03-12T07:33:28;99568.72;;;1.93;69.32
49945;BME280;35838;49.134;9.212;2023-03-12T07:35:02;99562.88;;;1.99;69.47
49945;BME280;35838;49.134;9.212;2023-03-12T07:36:35;99560.41;;;2.02;70.00
49945;BME280;35838;49.134;9.212;2023-03-12T07:38:09;99561.53;;;2.13;70.13
49945;BME280;35838;49.134;9.212;2023-03-12T07:39:45;99566.44;;;2.04;69.86
49945;BME280;35838;49.134;9.212;2023-03-12T07:41:21;99575.91;;;2.08;69.68
49945;BME280;35838;49.134;9.212;2023-03-12T07:42:55;99571.56;;;2.06;70.23
49945;BME280;35838;49.134;9.212;2023-03-12T07:44:29;99574.38;;;2.16;70.53
49945;BME280;35838;49.134;9.212;2023-03-12T07:46:03;99565.53;;;2.03;69.62
49945;BME280;35838;49.134;9.212;2023-03-12T07:47:37;99561.94;;;1.95;69.89
49945;BME280;35838;49.134;9.212;2023-03-12T07:49:10;99557.81;;;2.00;69.93
49945;BME280;35838;49.134;9.212;2023-03-12T07:50:44;99558.88;;;2.10;70.42
49945;BME280;35838;49.134;9.212;2023-03-12T07:52:18;99558.28;;;2.21;69.93
49945;BME280;35838;49.134;9.212;2023-03-12T07:53:53;99547.31;;;2.25;69.86
49945;BME280;35838;49.134;9.212;2023-03-12T07:55:29;99547.50;;;2.34;69.78
49945;BME280;35838;49.134;9.212;2023-03-12T07:57:02;99549.59;;;2.50;69.46
49945;BME280;35838;49.134;9.212;2023-03-12T07:58:36;99551.63;;;2.65;69.57
49945;BME280;35838;49.134;9.212;2023-03-12T08:00:10;99544.75;;;2.63;70.09
49945;BME280;35838;49.134;9.212;2023-03-12T08:01:41;99545.34;;;2.53;70.73
49945;BME280;35838;49.134;9.212;2023-03-12T08:03:15;99549.59;;;2.50;72.07
49945;BME280;35838;49.134;9.212;2023-03-12T08:04:49;99549.63;;;2.52;72.41
49945;BME280;35838;49.134;9.212;2023-03-12T08:06:22;99538.50;;;2.51;72.04
49945;BME280;35838;49.134;9.212;2023-03-12T08:07:56;99540.81;;;2.39;70.90
49945;BME280;35838;49.134;9.212;2023-03-12T08:09:29;99537.75;;;2.56;71.63
49945;BME280;35838;49.134;9.212;2023-03-12T08:11:07;99547.03;;;2.50;72.34
49945;BME280;35838;49.134;9.212;2023-03-12T08:12:41;99542.56;;;2.42;72.29
49945;BME280;35838;49.134;9.212;2023-03-12T08:14:14;99550.00;;;2.31;73.03
49945;BME280;35838;49.134;9.212;2023-03-12T08:15:48;99549.00;;;2.26;73.08
49945;BME280;35838;49.134;9.212;2023-03-12T08:17:22;99555.94;;;2.30;73.14
49945;BME280;35838;49.134;9.212;2023-03-12T08:18:56;99554.34;;;2.35;72.88
49945;BME280;35838;49.134;9.212;2023-03-12T08:20:29;99554.78;;;2.54;72.47
49945;BME280;35838;49.134;9.212;2023-03-12T08:22:03;99556.81;;;2.67;72.13
49945;BME280;35838;49.134;9.212;2023-03-12T08:23:36;99545.03;;;2.77;71.71
49945;BME280;35838;49.134;9.212;2023-03-12T08:25:10;99543.59;;;2.90;71.60